sensor_id;sensor_type;location;lat;lon;timestamp;temperature;humidity
11387;DHT22;5748;53.102;8.456;2023-11-19T00:01:11;11.70;73.20
11387;DHT22;5748;53.102;8.456;2023-11-19T00:03:37;11.70;73.10
11387;DHT22;5748;53.102;8.456;2023-11-19T00:06:06;11.80;73.40
11387;DHT22;5748;53.102;8.456;2023-11-19T00:08:35;11.80;73.40
11387;DHT22;5748;53.102;8.456;2023-11-19T00:11:02;11.80;73.40
11387;DHT22;5748;53.102;8.456;2023-11-19T00:13:29;11.80;73.50
11387;DHT22;5748;53.102;8.456;2023-11-19T00:15:56;11.90;73.50
11387;DHT22;5748;53.102;8.456;2023-11-19T00:18:23;11.90;73.50
11387;DHT22;5748;53.102;8.456;2023-11-19T00:20:50;11.90;73.60
11387;DHT22;5748;53.102;8.456;2023-11-19T00:23:18;12.00;73.70
11387;DHT22;5748;53.102;8.456;2023-11-19T00:25:45;12.00;73.60
11387;DHT22;5748;53.102;8.456;2023-11-19T00:28:13;12.00;73.50
11387;DHT22;5748;53.102;8.456;2023-11-19T00:30:40;12.00;73.80
11387;DHT22;5748;53.102;8.456;2023-11-19T00:33:07;12.10;73.90
11387;DHT22;5748;53.102;8.456;2023-11-19T00:35:34;12.10;73.90
11387;DHT22;5748;53.102;8.456;2023-11-19T00:38:01;12.20;74.10
11387;DHT22;5748;53.102;8.456;2023-11-19T00:40:30;12.70;74.50
11387;DHT22;5748;53.102;8.456;2023-11-19T00:42:57;12.60;74.40
11387;DHT22;5748;53.102;8.456;2023-11-19T00:45:24;12.30;74.10
11387;DHT22;5748;53.102;8.456;2023-11-19T00:47:52;12.30;74.00
11387;DHT22;5748;53.102;8.456;2023-11-19T00:52:46;12.40;73.70
11387;DHT22;5748;53.102;8.456;2023-11-19T00:55:13;13.10;74.80
11387;DHT22;5748;53.102;8.456;2023-11-19T00:57:41;12.50;74.90
11387;DHT22;5748;53.102;8.456;2023-11-19T01:00:11;12.60;74.90
11387;DHT22;5748;53.102;8.456;2023-11-19T01:02:44;12.60;75.00
11387;DHT22;5748;53.102;8.456;2023-11-19T01:05:11;12.70;75.40
11387;DHT22;5748;53.102;8.456;2023-11-19T01:07:40;12.90;75.20
11387;DHT22;5748;53.102;8.456;2023-11-19T01:10:07;12.90;75.20
11387;DHT22;5748;53.102;8.456;2023-11-19T01:12:35;12.90;75.20
11387;DHT22;5748;53.102;8.456;2023-11-19T01:15:05;12.90;75.50
11387;DHT22;5748;53.102;8.456;2023-11-19T01:17:32;12.90;75.60
11387;DHT22;5748;53.102;8.456;2023-11-19T01:20:00;12.40;74.80
11387;DHT22;5748;53.102;8.456;2023-11-19T01:22:26;13.10;75.40
11387;DHT22;5748;53.102;8.456;2023-11-19T01:24:53;13.10;75.50
11387;DHT22;5748;53.102;8.456;2023-11-19T01:27:20;13.10;75.60
11387;DHT22;5748;53.102;8.456;2023-11-19T01:29:47;13.10;75.50
11387;DHT22;5748;53.102;8.456;2023-11-19T01:32:15;13.20;75.50
11387;DHT22;5748;53.102;8.456;2023-11-19T01:34:42;13.20;75.40
11387;DHT22;5748;53.102;8.456;2023-11-19T01:37:09;13.30;75.40
11387;DHT22;5748;53.102;8.456;2023-11-19T01:39:38;13.40;75.60
11387;DHT22;5748;53.102;8.456;2023-11-19T01:42:05;13.30;75.90
11387;DHT22;5748;53.102;8.456;2023-11-19T01:44:32;13.30;76.40
11387;DHT22;5748;53.102;8.456;2023-11-19T01:46:59;13.50;75.80
11387;DHT22;5748;53.102;8.456;2023-11-19T01:49:28;13.50;75.80
11387;DHT22;5748;53.102;8.456;2023-11-19T01:51:57;13.40;75.60
11387;DHT22;5748;53.102;8.456;2023-11-19T01:54:24;13.60;75.90
11387;DHT22;5748;53.102;8.456;2023-11-19T01:56:53;13.60;75.90
11387;DHT22;5748;53.102;8.456;2023-11-19T01:59:22;13.60;75.90
11387;DHT22;5748;53.102;8.456;2023-11-19T02:01:52;13.60;75.80
11387;DHT22;5748;53.102;8.456;2023-11-19T02:04:20;13.60;75.90
11387;DHT22;5748;53.102;8.456;2023-11-19T02:06:50;12.90;75.10
11387;DHT22;5748;53.102;8.456;2023-11-19T02:09:19;13.70;76.10
11387;DHT22;5748;53.102;8.456;2023-11-19T02:14:16;13.70;75.70
11387;DHT22;5748;53.102;8.456;2023-11-19T02:16:43;13.80;76.00
11387;DHT22;5748;53.102;8.456;2023-11-19T02:19:10;14.00;76.20
11387;DHT22;5748;53.102;8.456;2023-11-19T02:21:37;13.80;76.20
11387;DHT22;5748;53.102;8.456;2023-11-19T02:24:08;13.80;76.10
11387;DHT22;5748;53.102;8.456;2023-11-19T02:26:40;13.90;76.30
11387;DHT22;5748;53.102;8.456;2023-11-19T02:29:13;13.90;76.20
11387;DHT22;5748;53.102;8.456;2023-11-19T02:31:40;13.90;76.10
11387;DHT22;5748;53.102;8.456;2023-11-19T02:34:07;14.00;76.20
11387;DHT22;5748;53.102;8.456;2023-11-19T02:36:34;14.00;76.20
11387;DHT22;5748;53.102;8.456;2023-11-19T02:39:01;14.00;76.20
11387;DHT22;5748;53.102;8.456;2023-11-19T02:41:28;14.10;76.00
11387;DHT22;5748;53.102;8.456;2023-11-19T02:43:55;14.10;76.30
11387;DHT22;5748;53.102;8.456;2023-11-19T02:46:24;14.10;76.30
11387;DHT22;5748;53.102;8.456;2023-11-19T02:48:51;14.10;76.20
11387;DHT22;5748;53.102;8.456;2023-11-19T02:51:18;14.20;76.30
11387;DHT22;5748;53.102;8.456;2023-11-19T02:53:45;14.30;76.30
11387;DHT22;5748;53.102;8.456;2023-11-19T02:56:13;14.30;76.30
11387;DHT22;5748;53.102;8.456;2023-11-19T02:58:50;14.30;76.20
11387;DHT22;5748;53.102;8.456;2023-11-19T03:01:23;12.70;75.00
11387;DHT22;5748;53.102;8.456;2023-11-19T03:03:55;14.30;76.50
11387;DHT22;5748;53.102;8.456;2023-11-19T03:06:22;14.40;76.40
11387;DHT22;5748;53.102;8.456;2023-11-19T03:08:49;14.40;76.40
11387;DHT22;5748;53.102;8.456;2023-11-19T03:11:16;14.50;76.40
11387;DHT22;5748;53.102;8.456;2023-11-19T03:13:43;14.50;76.60
11387;DHT22;5748;53.102;8.456;2023-11-19T03:16:10;14.50;76.50
11387;DHT22;5748;53.102;8.456;2023-11-19T03:18:38;14.50;76.50
11387;DHT22;5748;53.102;8.456;2023-11-19T03:21:06;14.50;76.60
11387;DHT22;5748;53.102;8.456;2023-11-19T03:23:33;14.50;76.80
11387;DHT22;5748;53.102;8.456;2023-11-19T03:26:00;14.50;76.50
11387;DHT22;5748;53.102;8.456;2023-11-19T03:28:29;14.60;76.60
11387;DHT22;5748;53.102;8.456;2023-11-19T03:30:56;14.60;76.90
11387;DHT22;5748;53.102;8.456;2023-11-19T03:33:23;14.60;77.00
11387;DHT22;5748;53.102;8.456;2023-11-19T03:35:54;14.60;76.90
11387;DHT22;5748;53.102;8.456;2023-11-19T03:38:22;14.60;76.90
11387;DHT22;5748;53.102;8.456;2023-11-19T03:40:49;14.60;77.30
11387;DHT22;5748;53.102;8.456;2023-11-19T03:43:16;14.60;77.30
11387;DHT22;5748;53.102;8.456;2023-11-19T03:45:44;14.70;77.10
11387;DHT22;5748;53.102;8.456;2023-11-19T03:48:11;14.70;77.10
11387;DHT22;5748;53.102;8.456;2023-11-19T03:50:38;14.70;76.90
11387;DHT22;5748;53.102;8.456;2023-11-19T03:53:07;14.70;76.90
11387;DHT22;5748;53.102;8.456;2023-11-19T03:55:33;14.80;76.90
11387;DHT22;5748;53.102;8.456;2023-11-19T03:58:00;14.80;77.00
11387;DHT22;5748;53.102;8.456;2023-11-19T04:00:27;14.80;77.10
11387;DHT22;5748;53.102;8.456;2023-11-19T04:02:55;14.80;77.10
11387;DHT22;5748;53.102;8.456;2023-11-19T04:05:21;14.90;77.20
11387;DHT22;5748;53.102;8.456;2023-11-19T04:07:47;14.90;77.20
11387;DHT22;5748;53.102;8.456;2023-11-19T04:10:15;14.90;77.20
11387;DHT22;5748;53.102;8.456;2023-11-19T04:12:43;15.00;77.60
11387;DHT22;5748;53.102;8.456;2023-11-19T04:15:11;15.00;78.10
11387;DHT22;5748;53.102;8.456;2023-11-19T04:17:38;15.00;77.60
11387;DHT22;5748;53.102;8.456;2023-11-19T04:20:06;15.10;77.40
11387;DHT22;5748;53.102;8.456;2023-11-19T04:22:36;15.10;77.70
11387;DHT22;5748;53.102;8.456;2023-11-19T04:25:04;15.20;77.60
11387;DHT22;5748;53.102;8.456;2023-11-19T04:27:34;15.20;77.80
11387;DHT22;5748;53.102;8.456;2023-11-19T04:30:00;15.20;77.70
11387;DHT22;5748;53.102;8.456;2023-11-19T04:32:29;15.20;77.70
11387;DHT22;5748;53.102;8.456;2023-11-19T04:34:55;15.20;77.50
11387;DHT22;5748;53.102;8.456;2023-11-19T04:37:22;15.30;77.50
11387;DHT22;5748;53.102;8.456;2023-11-19T04:39:50;15.30;77.50
11387;DHT22;5748;53.102;8.456;2023-11-19T04:42:17;15.40;77.40
11387;DHT22;5748;53.102;8.456;2023-11-19T04:44:45;15.40;77.40
11387;DHT22;5748;53.102;8.456;2023-11-19T04:47:12;15.40;77.20
11387;DHT22;5748;53.102;8.456;2023-11-19T04:49:40;15.40;77.10
11387;DHT22;5748;53.102;8.456;2023-11-19T04:52:09;15.40;77.10
11387;DHT22;5748;53.102;8.456;2023-11-19T04:54:40;15.40;77.00
11387;DHT22;5748;53.102;8.456;2023-11-19T04:57:08;15.40;77.20
11387;DHT22;5748;53.102;8.456;2023-11-19T04:59:36;15.50;77.00
11387;DHT22;5748;53.102;8.456;2023-11-19T05:02:04;15.50;76.90
11387;DHT22;5748;53.102;8.456;2023-11-19T05:04:31;15.50;77.10
11387;DHT22;5748;53.102;8.456;2023-11-19T05:06:58;15.50;77.20
11387;DHT22;5748;53.102;8.456;2023-11-19T05:09:25;15.50;77.20
11387;DHT22;5748;53.102;8.456;2023-11-19T05:11:52;15.50;77.20
11387;DHT22;5748;53.102;8.456;2023-11-19T05:14:19;15.50;77.20
11387;DHT22;5748;53.102;8.456;2023-11-19T05:16:47;15.50;77.20
11387;DHT22;5748;53.102;8.456;2023-11-19T05:19:15;15.50;77.10
11387;DHT22;5748;53.102;8.456;2023-11-19T05:21:42;14.30;75.80
11387;DHT22;5748;53.102;8.456;2023-11-19T05:24:09;15.50;77.00
11387;DHT22;5748;53.102;8.456;2023-11-19T05:26:37;15.50;76.90
11387;DHT22;5748;53.102;8.456;2023-11-19T05:29:04;15.50;77.10
11387;DHT22;5748;53.102;8.456;2023-11-19T05:31:31;15.50;76.90
11387;DHT22;5748;53.102;8.456;2023-11-19T05:33:58;15.50;77.00
11387;DHT22;5748;53.102;8.456;2023-11-19T05:36:26;15.50;76.90
11387;DHT22;5748;53.102;8.456;2023-11-19T05:38:54;15.50;77.20
11387;DHT22;5748;53.102;8.456;2023-11-19T05:41:21;15.50;77.20
11387;DHT22;5748;53.102;8.456;2023-11-19T05:43:48;15.50;77.30
11387;DHT22;5748;53.102;8.456;2023-11-19T05:46:15;15.50;77.20
11387;DHT22;5748;53.102;8.456;2023-11-19T05:48:42;15.50;77.20
11387;DHT22;5748;53.102;8.456;2023-11-19T05:51:11;15.50;77.20
11387;DHT22;5748;53.102;8.456;2023-11-19T05:53:39;15.50;76.60
11387;DHT22;5748;53.102;8.456;2023-11-19T05:56:06;15.50;77.20
11387;DHT22;5748;53.102;8.456;2023-11-19T05:58:35;15.60;76.60
11387;DHT22;5748;53.102;8.456;2023-11-19T06:01:02;15.60;77.20
11387;DHT22;5748;53.102;8.456;2023-11-19T06:03:32;15.60;77.10
11387;DHT22;5748;53.102;8.456;2023-11-19T06:05:59;15.60;76.80
11387;DHT22;5748;53.102;8.456;2023-11-19T06:08:26;15.60;76.80
11387;DHT22;5748;53.102;8.456;2023-11-19T06:10:54;15.60;76.80
11387;DHT22;5748;53.102;8.456;2023-11-19T06:13:21;15.60;76.70
11387;DHT22;5748;53.102;8.456;2023-11-19T06:15:49;15.60;76.80
11387;DHT22;5748;53.102;8.456;2023-11-19T06:18:16;17.40;78.70
11387;DHT22;5748;53.102;8.456;2023-11-19T06:20:45;14.40;74.90
11387;DHT22;5748;53.102;8.456;2023-11-19T06:23:12;15.50;76.30
11387;DHT22;5748;53.102;8.456;2023-11-19T06:25:39;15.50;76.70
11387;DHT22;5748;53.102;8.456;2023-11-19T06:28:07;15.50;76.70
11387;DHT22;5748;53.102;8.456;2023-11-19T06:30:35;15.50;76.70
11387;DHT22;5748;53.102;8.456;2023-11-19T06:33:02;15.50;77.50
11387;DHT22;5748;53.102;8.456;2023-11-19T06:35:29;15.50;76.70
11387;DHT22;5748;53.102;8.456;2023-11-19T06:38:01;15.50;76.40
11387;DHT22;5748;53.102;8.456;2023-11-19T06:42:57;15.40;76.30
11387;DHT22;5748;53.102;8.456;2023-11-19T06:47:52;15.40;76.20
11387;DHT22;5748;53.102;8.456;2023-11-19T06:50:19;15.40;76.10
11387;DHT22;5748;53.102;8.456;2023-11-19T06:52:46;15.40;76.10
11387;DHT22;5748;53.102;8.456;2023-11-19T06:55:13;15.40;76.50
11387;DHT22;5748;53.102;8.456;2023-11-19T07:00:09;15.40;76.20
11387;DHT22;5748;53.102;8.456;2023-11-19T07:02:39;15.30;76.80
11387;DHT22;5748;53.102;8.456;2023-11-19T07:05:06;15.40;77.10
11387;DHT22;5748;53.102;8.456;2023-11-19T07:07:33;15.40;77.10
11387;DHT22;5748;53.102;8.456;2023-11-19T07:10:01;15.40;77.00
11387;DHT22;5748;53.102;8.456;2023-11-19T07:12:30;15.40;76.90
11387;DHT22;5748;53.102;8.456;2023-11-19T07:14:56;15.40;76.60
11387;DHT22;5748;53.102;8.456;2023-11-19T07:17:23;15.40;76.70
11387;DHT22;5748;53.102;8.456;2023-11-19T07:19:52;15.40;76.80
11387;DHT22;5748;53.102;8.456;2023-11-19T07:22:19;15.40;76.70
11387;DHT22;5748;53.102;8.456;2023-11-19T07:24:46;15.50;76.20
11387;DHT22;5748;53.102;8.456;2023-11-19T07:27:13;15.40;76.60
11387;DHT22;5748;53.102;8.456;2023-11-19T07:29:43;15.50;76.60
11387;DHT22;5748;53.102;8.456;2023-11-19T07:32:10;15.40;76.50
11387;DHT22;5748;53.102;8.456;2023-11-19T07:34:38;15.40;76.00
11387;DHT22;5748;53.102;8.456;2023-11-19T07:39:35;15.40;76.00
11387;DHT22;5748;53.102;8.456;2023-11-19T07:42:37;15.40;76.00
11387;DHT22;5748;53.102;8.456;2023-11-19T07:45:22;15.40;76.10
11387;DHT22;5748;53.102;8.456;2023-11-19T07:50:58;15.40;75.90
11387;DHT22;5748;53.102;8.456;2023-11-19T07:53:26;15.40;75.90
11387;DHT22;5748;53.102;8.456;2023-11-19T07:55:53;15.40;76.50
11387;DHT22;5748;53.102;8.456;2023-11-19T07:58:20;15.30;76.30
11387;DHT22;5748;53.102;8.456;2023-11-19T08:00:47;15.30;76.40
11387;DHT22;5748;53.102;8.456;2023-11-19T08:03:14;15.40;76.50
11387;DHT22;5748;53.102;8.456;2023-11-19T08:05:41;15.30;76.00
11387;DHT22;5748;53.102;8.456;2023-11-19T08:08:08;15.30;76.40
11387;DHT22;5748;53.102;8.456;2023-11-19T08:10:36;15.40;76.50
11387;DHT22;5748;53.102;8.456;2023-11-19T08:13:03;15.40;75.80
11387;DHT22;5748;53.102;8.456;2023-11-19T08:15:30;15.40;76.30
11387;DHT22;5748;53.102;8.456;2023-11-19T08:17:57;15.30;76.80
11387;DHT22;5748;53.102;8.456;2023-11-19T08:20:24;15.40;76.20
11387;DHT22;5748;53.102;8.456;2023-11-19T08:22:51;15.30;76.20
11387;DHT22;5748;53.102;8.456;2023-11-19T08:25:18;15.40;76.30
11387;DHT22;5748;53.102;8.456;2023-11-19T08:27:46;15.30;76.20
11387;DHT22;5748;53.102;8.456;2023-11-19T08:30:13;15.30;76.30
11387;DHT22;5748;53.102;8.456;2023-11-19T08:32:40;15.40;76.60
11387;DHT22;5748;53.102;8.456;2023-11-19T08:35:08;15.40;76.50
11387;DHT22;5748;53.102;8.456;2023-11-19T08:37:35;15.40;76.60
11387;DHT22;5748;53.102;8.456;2023-11-19T08:40:05;15.50;76.50
11387;DHT22;5748;53.102;8.456;2023-11-19T08:42:32;15.50;76.60
11387;DHT22;5748;53.102;8.456;2023-11-19T08:45:01;15.50;76.60
11387;DHT22;5748;53.102;8.456;2023-11-19T08:47:28;15.60;76.60
11387;DHT22;5748;53.102;8.456;2023-11-19T08:49:54;15.60;76.50
11387;DHT22;5748;53.102;8.456;2023-11-19T08:52:21;15.60;76.00
11387;DHT22;5748;53.102;8.456;2023-11-19T08:54:48;15.60;75.80
11387;DHT22;5748;53.102;8.456;2023-11-19T08:57:15;15.70;76.40
11387;DHT22;5748;53.102;8.456;2023-11-19T08:59:42;15.70;76.10
11387;DHT22;5748;53.102;8.456;2023-11-19T09:02:12;15.70;76.10
11387;DHT22;5748;53.102;8.456;2023-11-19T09:04:39;15.70;75.60
11387;DHT22;5748;53.102;8.456;2023-11-19T09:07:06;15.70;76.20
11387;DHT22;5748;53.102;8.456;2023-11-19T09:09:34;15.80;76.30
11387;DHT22;5748;53.102;8.456;2023-11-19T09:12:02;15.80;76.20
11387;DHT22;5748;53.102;8.456;2023-11-19T09:14:29;15.80;76.20
11387;DHT22;5748;53.102;8.456;2023-11-19T09:16:56;15.90;76.20
11387;DHT22;5748;53.102;8.456;2023-11-19T09:19:25;15.90;76.90
11387;DHT22;5748;53.102;8.456;2023-11-19T09:21:52;15.90;76.30
11387;DHT22;5748;53.102;8.456;2023-11-19T09:24:19;15.90;75.90
11387;DHT22;5748;53.102;8.456;2023-11-19T09:26:46;15.90;75.10
11387;DHT22;5748;53.102;8.456;2023-11-19T09:29:12;15.90;75.10
11387;DHT22;5748;53.102;8.456;2023-11-19T09:34:07;15.90;75.00
11387;DHT22;5748;53.102;8.456;2023-11-19T09:39:02;15.90;75.10
11387;DHT22;5748;53.102;8.456;2023-11-19T09:41:31;15.80;75.00
11387;DHT22;5748;53.102;8.456;2023-11-19T09:44:00;15.80;75.50
11387;DHT22;5748;53.102;8.456;2023-11-19T09:46:28;16.10;75.80
11387;DHT22;5748;53.102;8.456;2023-11-19T09:48:57;15.80;75.70
11387;DHT22;5748;53.102;8.456;2023-11-19T09:53:53;15.70;75.00
11387;DHT22;5748;53.102;8.456;2023-11-19T09:58:48;15.70;75.20
11387;DHT22;5748;53.102;8.456;2023-11-19T10:01:15;15.70;75.20
11387;DHT22;5748;53.102;8.456;2023-11-19T10:03:42;15.60;75.10
11387;DHT22;5748;53.102;8.456;2023-11-19T10:06:10;16.70;76.80
11387;DHT22;5748;53.102;8.456;2023-11-19T10:08:37;15.50;75.00
11387;DHT22;5748;53.102;8.456;2023-11-19T10:11:07;15.50;75.60
11387;DHT22;5748;53.102;8.456;2023-11-19T10:13:36;15.60;75.80
11387;DHT22;5748;53.102;8.456;2023-11-19T10:16:07;15.50;75.80
11387;DHT22;5748;53.102;8.456;2023-11-19T10:18:37;15.40;75.90
11387;DHT22;5748;53.102;8.456;2023-11-19T10:21:05;15.40;76.00
11387;DHT22;5748;53.102;8.456;2023-11-19T10:23:48;15.40;76.20
11387;DHT22;5748;53.102;8.456;2023-11-19T10:26:17;15.40;76.40
11387;DHT22;5748;53.102;8.456;2023-11-19T10:28:46;15.40;76.40
11387;DHT22;5748;53.102;8.456;2023-11-19T10:31:13;15.30;76.40
11387;DHT22;5748;53.102;8.456;2023-11-19T10:33:41;15.40;76.50
11387;DHT22;5748;53.102;8.456;2023-11-19T10:36:10;15.30;76.50
11387;DHT22;5748;53.102;8.456;2023-11-19T10:38:38;15.40;76.10
11387;DHT22;5748;53.102;8.456;2023-11-19T10:41:05;15.30;76.50
11387;DHT22;5748;53.102;8.456;2023-11-19T10:43:44;15.40;76.60
11387;DHT22;5748;53.102;8.456;2023-11-19T10:46:12;15.40;76.10
11387;DHT22;5748;53.102;8.456;2023-11-19T10:48:40;15.40;76.70
11387;DHT22;5748;53.102;8.456;2023-11-19T10:51:07;15.40;76.70
11387;DHT22;5748;53.102;8.456;2023-11-19T10:53:36;15.40;76.70
11387;DHT22;5748;53.102;8.456;2023-11-19T10:56:06;15.50;76.90
11387;DHT22;5748;53.102;8.456;2023-11-19T10:58:40;15.50;77.00
11387;DHT22;5748;53.102;8.456;2023-11-19T11:01:16;15.50;77.20
11387;DHT22;5748;53.102;8.456;2023-11-19T11:03:46;15.60;77.60
11387;DHT22;5748;53.102;8.456;2023-11-19T11:08:43;15.80;77.70
11387;DHT22;5748;53.102;8.456;2023-11-19T11:11:13;15.90;77.90
11387;DHT22;5748;53.102;8.456;2023-11-19T11:13:43;16.00;78.90
11387;DHT22;5748;53.102;8.456;2023-11-19T11:16:12;16.20;78.20
11387;DHT22;5748;53.102;8.456;2023-11-19T11:18:40;16.30;77.80
11387;DHT22;5748;53.102;8.456;2023-11-19T11:21:09;16.40;77.50
11387;DHT22;5748;53.102;8.456;2023-11-19T11:23:53;16.40;77.60
11387;DHT22;5748;53.102;8.456;2023-11-19T11:27:01;16.60;77.90
11387;DHT22;5748;53.102;8.456;2023-11-19T11:29:45;16.70;78.00
11387;DHT22;5748;53.102;8.456;2023-11-19T11:32:25;17.10;77.90
11387;DHT22;5748;53.102;8.456;2023-11-19T11:35:12;16.90;77.30
11387;DHT22;5748;53.102;8.456;2023-11-19T11:37:50;16.90;75.80
11387;DHT22;5748;53.102;8.456;2023-11-19T11:45:35;16.90;74.90
11387;DHT22;5748;53.102;8.456;2023-11-19T11:48:14;16.90;75.10
11387;DHT22;5748;53.102;8.456;2023-11-19T11:50:56;16.80;74.80
11387;DHT22;5748;53.102;8.456;2023-11-19T11:53:25;16.70;74.60
11387;DHT22;5748;53.102;8.456;2023-11-19T11:55:57;16.70;74.70
11387;DHT22;5748;53.102;8.456;2023-11-19T11:58:30;16.60;74.70
11387;DHT22;5748;53.102;8.456;2023-11-19T12:01:01;16.50;74.10
11387;DHT22;5748;53.102;8.456;2023-11-19T12:03:31;16.50;74.80
11387;DHT22;5748;53.102;8.456;2023-11-19T12:05:59;16.50;75.00
11387;DHT22;5748;53.102;8.456;2023-11-19T12:08:27;16.40;74.90
11387;DHT22;5748;53.102;8.456;2023-11-19T12:10:57;16.30;74.40
11387;DHT22;5748;53.102;8.456;2023-11-19T12:13:52;16.30;74.40
11387;DHT22;5748;53.102;8.456;2023-11-19T12:16:23;16.30;75.00
11387;DHT22;5748;53.102;8.456;2023-11-19T12:18:50;16.30;75.10
11387;DHT22;5748;53.102;8.456;2023-11-19T12:21:28;16.30;74.60
11387;DHT22;5748;53.102;8.456;2023-11-19T12:23:58;16.20;75.00
11387;DHT22;5748;53.102;8.456;2023-11-19T12:26:39;16.20;75.00
11387;DHT22;5748;53.102;8.456;2023-11-19T12:29:06;15.40;74.20
11387;DHT22;5748;53.102;8.456;2023-11-19T12:31:35;19.20;79.50
11387;DHT22;5748;53.102;8.456;2023-11-19T12:34:11;16.10;75.00
11387;DHT22;5748;53.102;8.456;2023-11-19T12:36:41;16.50;77.00
11387;DHT22;5748;53.102;8.456;2023-11-19T12:39:10;15.90;75.00
11387;DHT22;5748;53.102;8.456;2023-11-19T12:41:50;15.90;74.40
11387;DHT22;5748;53.102;8.456;2023-11-19T12:44:18;15.80;75.00
11387;DHT22;5748;53.102;8.456;2023-11-19T12:46:58;15.80;74.90
11387;DHT22;5748;53.102;8.456;2023-11-19T12:50:04;15.60;74.10
11387;DHT22;5748;53.102;8.456;2023-11-19T13:00:34;16.90;75.90
11387;DHT22;5748;53.102;8.456;2023-11-19T13:10:03;15.00;73.80
11387;DHT22;5748;53.102;8.456;2023-11-19T13:12:40;15.00;73.80
11387;DHT22;5748;53.102;8.456;2023-11-19T13:15:24;15.00;74.20
11387;DHT22;5748;53.102;8.456;2023-11-19T13:20:31;14.90;74.40
11387;DHT22;5748;53.102;8.456;2023-11-19T13:26:21;14.90;75.20
11387;DHT22;5748;53.102;8.456;2023-11-19T13:29:06;14.90;74.60
11387;DHT22;5748;53.102;8.456;2023-11-19T13:32:00;14.90;74.80
11387;DHT22;5748;53.102;8.456;2023-11-19T13:34:43;14.90;74.30
11387;DHT22;5748;53.102;8.456;2023-11-19T13:37:39;15.00;76.80
11387;DHT22;5748;53.102;8.456;2023-11-19T13:40:08;14.90;74.40
11387;DHT22;5748;53.102;8.456;2023-11-19T13:42:39;15.00;75.30
11387;DHT22;5748;53.102;8.456;2023-11-19T13:45:08;17.70;79.20
11387;DHT22;5748;53.102;8.456;2023-11-19T13:50:09;12.80;72.30
11387;DHT22;5748;53.102;8.456;2023-11-19T13:52:41;15.00;74.80
11387;DHT22;5748;53.102;8.456;2023-11-19T13:55:39;15.00;75.20
11387;DHT22;5748;53.102;8.456;2023-11-19T13:58:39;15.00;74.80
11387;DHT22;5748;53.102;8.456;2023-11-19T14:01:06;15.10;74.90
11387;DHT22;5748;53.102;8.456;2023-11-19T14:06:01;15.10;75.00
11387;DHT22;5748;53.102;8.456;2023-11-19T14:08:45;15.10;76.40
11387;DHT22;5748;53.102;8.456;2023-11-19T14:11:24;15.10;75.40
11387;DHT22;5748;53.102;8.456;2023-11-19T14:14:24;15.20;75.80
11387;DHT22;5748;53.102;8.456;2023-11-19T14:17:48;15.20;75.90
11387;DHT22;5748;53.102;8.456;2023-11-19T14:20:36;15.20;75.80
11387;DHT22;5748;53.102;8.456;2023-11-19T14:23:05;15.20;74.80
11387;DHT22;5748;53.102;8.456;2023-11-19T14:25:36;16.70;77.50
11387;DHT22;5748;53.102;8.456;2023-11-19T14:28:03;15.10;75.10
11387;DHT22;5748;53.102;8.456;2023-11-19T14:31:03;15.20;74.60
11387;DHT22;5748;53.102;8.456;2023-11-19T14:37:48;15.10;74.80
11387;DHT22;5748;53.102;8.456;2023-11-19T14:40:15;15.10;74.80
11387;DHT22;5748;53.102;8.456;2023-11-19T14:42:43;15.10;74.80
11387;DHT22;5748;53.102;8.456;2023-11-19T14:45:10;15.10;75.00
11387;DHT22;5748;53.102;8.456;2023-11-19T14:47:37;15.00;74.40
11387;DHT22;5748;53.102;8.456;2023-11-19T14:50:06;15.00;75.10
11387;DHT22;5748;53.102;8.456;2023-11-19T14:52:34;15.00;75.10
11387;DHT22;5748;53.102;8.456;2023-11-19T14:55:02;15.00;75.10
11387;DHT22;5748;53.102;8.456;2023-11-19T14:57:29;15.00;74.60
11387;DHT22;5748;53.102;8.456;2023-11-19T14:59:57;15.00;75.10
11387;DHT22;5748;53.102;8.456;2023-11-19T15:02:24;15.00;75.10
11387;DHT22;5748;53.102;8.456;2023-11-19T15:04:51;15.10;74.70
11387;DHT22;5748;53.102;8.456;2023-11-19T15:10:58;15.00;74.50
11387;DHT22;5748;53.102;8.456;2023-11-19T15:13:36;15.00;74.30
11387;DHT22;5748;53.102;8.456;2023-11-19T15:19:39;15.00;74.50
11387;DHT22;5748;53.102;8.456;2023-11-19T15:27:26;14.90;74.30
11387;DHT22;5748;53.102;8.456;2023-11-19T15:30:06;15.20;75.50
11387;DHT22;5748;53.102;8.456;2023-11-19T15:32:36;14.90;75.10
11387;DHT22;5748;53.102;8.456;2023-11-19T15:35:05;14.90;75.30
11387;DHT22;5748;53.102;8.456;2023-11-19T15:38:10;14.50;74.80
11387;DHT22;5748;53.102;8.456;2023-11-19T15:40:57;14.90;74.90
11387;DHT22;5748;53.102;8.456;2023-11-19T15:43:30;14.90;74.90
11387;DHT22;5748;53.102;8.456;2023-11-19T15:48:26;14.90;74.90
11387;DHT22;5748;53.102;8.456;2023-11-19T15:50:55;14.90;74.90
11387;DHT22;5748;53.102;8.456;2023-11-19T15:56:02;14.90;75.00
11387;DHT22;5748;53.102;8.456;2023-11-19T15:58:41;14.90;77.20
11387;DHT22;5748;53.102;8.456;2023-11-19T16:01:08;15.00;77.10
11387;DHT22;5748;53.102;8.456;2023-11-19T16:03:36;16.80;79.60
11387;DHT22;5748;53.102;8.456;2023-11-19T16:06:05;14.80;75.30
11387;DHT22;5748;53.102;8.456;2023-11-19T16:08:32;14.70;76.70
11387;DHT22;5748;53.102;8.456;2023-11-19T16:10:59;14.70;76.20
11387;DHT22;5748;53.102;8.456;2023-11-19T16:15:53;14.90;75.50
11387;DHT22;5748;53.102;8.456;2023-11-19T16:18:20;14.90;75.30
11387;DHT22;5748;53.102;8.456;2023-11-19T16:20:56;14.90;75.90
11387;DHT22;5748;53.102;8.456;2023-11-19T16:23:29;13.60;75.20
11387;DHT22;5748;53.102;8.456;2023-11-19T16:25:56;13.30;73.80
11387;DHT22;5748;53.102;8.456;2023-11-19T16:28:23;19.00;80.00
11387;DHT22;5748;53.102;8.456;2023-11-19T16:30:50;14.90;75.50
11387;DHT22;5748;53.102;8.456;2023-11-19T16:33:19;16.00;76.60
11387;DHT22;5748;53.102;8.456;2023-11-19T16:35:46;14.90;75.50
11387;DHT22;5748;53.102;8.456;2023-11-19T16:38:14;14.90;75.50
11387;DHT22;5748;53.102;8.456;2023-11-19T16:40:41;14.90;75.00
11387;DHT22;5748;53.102;8.456;2023-11-19T16:43:09;14.90;75.60
11387;DHT22;5748;53.102;8.456;2023-11-19T16:45:37;14.90;75.50
11387;DHT22;5748;53.102;8.456;2023-11-19T16:48:04;14.90;75.90
11387;DHT22;5748;53.102;8.456;2023-11-19T16:50:32;14.90;75.00
11387;DHT22;5748;53.102;8.456;2023-11-19T16:52:58;14.90;75.50
11387;DHT22;5748;53.102;8.456;2023-11-19T16:55:30;15.00;75.50
11387;DHT22;5748;53.102;8.456;2023-11-19T16:57:56;15.00;75.60
11387;DHT22;5748;53.102;8.456;2023-11-19T17:00:24;15.00;75.50
11387;DHT22;5748;53.102;8.456;2023-11-19T17:02:52;15.00;75.60
11387;DHT22;5748;53.102;8.456;2023-11-19T17:05:18;15.00;75.40
11387;DHT22;5748;53.102;8.456;2023-11-19T17:07:45;15.00;75.30
11387;DHT22;5748;53.102;8.456;2023-11-19T17:10:13;15.00;74.80
11387;DHT22;5748;53.102;8.456;2023-11-19T17:12:45;15.00;74.80
11387;DHT22;5748;53.102;8.456;2023-11-19T17:15:13;15.00;74.80
11387;DHT22;5748;53.102;8.456;2023-11-19T17:17:40;16.60;77.10
11387;DHT22;5748;53.102;8.456;2023-11-19T17:20:08;15.00;75.30
11387;DHT22;5748;53.102;8.456;2023-11-19T17:22:38;15.00;75.40
11387;DHT22;5748;53.102;8.456;2023-11-19T17:25:26;15.00;76.20
11387;DHT22;5748;53.102;8.456;2023-11-19T17:27:55;15.00;74.90